メインページ
METAR-TAF:

METAR-TAF

空港 :

エカテリンブルク, ロシア

コルツォヴォ国際空港

緯度: 56-50N, 経度: 060-38E, 海抜: 237m

現時点の気象観測

当レポートは38分前の23:00(UTC)に作成
の風 6kt
気温 4°C
湿度 93%
気圧 1031 hPa
視程10km以上
高度700ftの雲は散在している
高度1200ftの曇り, 積乱雲.
弱いにわか雨

METAR: USSS 232300Z 10003MPS 9999 -SHRA SCT007 OVC012CB 04/03 Q1031 R08L/290033 NOSIG RMK QFE753/1004

時間: 04:38 (23:38 UTC)

予報

当レポートは3時間44分前の19:54(UTC)に作成
予報は23日の 21時(UTC)から 24日の 21時(UTC)まで有効
北/北西の風 6kt
視程: 3100m
高度1100ftの千切れ雲あり
高度2000ftの雲は散在している, 積乱雲.
弱いにわか雨, 靄
23日の 21時(UTC)から 24日の 04時(UTC)まで一時的に
視程: 0300m
高度200ftの
24日の 04時(UTC)から 24日の 05時(UTC)まで徐々に
視程: 5000m
弱いにわか雨

TAF: USSS 231954Z 2321/2421 33003MPS 3100 -SHRA BR BKN011 SCT020CB TEMPO 2321/2404 0300 FG VV002 BECMG 2404/2405 5000 -SHRA

4,000以上の空港の気象観測と天気予報(METAR報とTAF報)

利用可能な観測所は地図上に黄色い丸と赤い丸で示す。

丸の上にカーソルを重ねると観測所名を参照できる。

次にクリックすると気象観測と天気予報を参照できる。

マップの切り替え:黒色「×」印の緑ボタンをクリックして拡大、「-」印の緑ボタンをクリックして縮小、緑色の三角印をクリックして隣りの地図に切り替え


METAR-TAF: